Semaine O'tomnale - Régionale MD Scaer, foret de Coatloch (29) - G

Date : 31/10/2012
Distance : 2,000 km

Place Nom Licence Catégorie Club Temps min/km CN à J-60 Points Différence Nouveau CN
1 DEVILLE Nelly 2401 D60 5402LO 0:30:41 15'20 4716 5391 +675 5091
2 SIMONET Jean 930 H70 7707IF 0:31:26 15'43 4851 5262 +411 5395
3 CROCHET Gerard 2817 H70 1705PC 0:32:29 16'14 4195 5092 +897 4504
4 DUBROCA Monique 633 D65 3308AQ 0:34:06 17'03 4912 4851 -61 4912
5 LARMINACH Andre 646 H70 3308AQ 0:34:23 17'11 4295 4811 +516 4726
6 EUZEN J-Paul 16403 H70 6911RA 0:34:37 17'18 2904 4778 +1874 4327
7 CHALOPIN Catherine 3674 D60 2105BO 0:35:28 17'44 3949 4664 +715 4060
8 DIEUDONNE Madeleine 1380 D65 7808IF 0:37:20 18'40 4391 4431 +40 4836
9 COLLETER J-Claude 1264 H70 1705PC 0:37:30 18'45 2545 4411 +1866 3606
10 ANTOINE Regis 1276 H70 7108BO 0:39:04 19'32 3758 4234 +476 3798
11 BLASCO Serge 396 H70 2406AQ 0:39:27 19'43 3944 4193 +249 4101
12 LABEUR Roselyne 905 D60 7707IF 0:40:14 20'07 3903 4111 +208 4098
13 ETIENNE Bernadette 15324 D60 8807LO 0:42:47 21'23 0 3866 2142
14 GARROS Jocelyne 1298 D60 6408AQ 0:43:00 21'30 2949 3847 +898 2957
15 MOULIERE M-Bernadette 2888 D65 0207PI 0:43:18 21'39 3539 3820 +281 3701
16 RICHARD Nicole 14245 D60 0207PI 0:44:01 22'00 3396 3758 +362 3636
17 BRUNEL Marie-Jo 8761 D60 8903BO 0:44:30 22'15 3580 3717 +137 3688
18 BLASCO Nicole 395 D65 2406AQ 0:45:33 22'46 3945 3631 -314 4011
19 PROST Daniel 2181 H70 9307IF 0:46:37 23'18 3046 3548 +502 3435
20 OUDIN M-Reine 7574 D60 6804AL 0:46:43 23'21 3603 3541 -62 3781
21 COUPEY Guy 5118 H70 2704NM 0:48:33 24'16 2501 3407 +906 2911
22 VOGT Christiane 2557 D65 6709AL 0:50:32 25'16 4034 3273 -761 4034
23 DIRRINGER M-Claude 15630 D60 4902PL 0:51:11 25'35 2515 3232 +717 3026
24 BERGER M-Jose 7182 D60 5703LO 0:51:43 25'51 4040 3198 -842 3914
25 LECOYER Annick 2885 D60 0207PI 0:52:08 26'04 2919 3173 +254 3052
26 POGU Paulette 4671 D60 5402LO 0:57:18 28'39 3240 2887 -353 3077
27 KIEFFER Mireille 2680 D65 2101BO 0:57:20 28'40 2779 2885 +106 2829
28 BASTIEN-FATH Nicole 8954 D65 5402LO 0:57:24 28'42 2564 2882 +318 2681
29 LAUNEY Noella 11368 D70 7203PL 0:58:52 29'26 2150 2810 +660 2437
30 MONTANARI Colette 2533 D60 5703LO 0:59:11 29'35 3715 2795 -920 3495
31 LARMINACH Genevieve 647 D65 3308AQ 1:01:03 30'31 2565 2709 +144 2600
32 NATALI Annie 1106 D65 8105MP 1:04:57 32'28 3067 2547 -520 2628
33 RIOFFRAY Jacqueline 25 D60 4204RA 1:06:48 33'24 1827 2476 +649 1999
34 POUPIER Claudine 13991 D60 7203PL 1:08:31 34'15 2670 2414 -256 2984
35 PROST Gisele 2182 D60 9307IF 1:10:56 35'28 2848 2332 -516 2848
36 ALLANCON Claudine 14632 D60 2906BR 1:14:46 37'23 2095 2212 +117 2138
37 LEBIAN-DEROME Annie 8121 D65 9502IF 1:15:11 37'35 2319 2200 -119 2494
38 LUDEWIG-JAMES Carol 15894 D70 5907NO 1:36:23 48'11 2388 1716 -672 2483
DRAULT J-Raymond 4234 H70 8702LI pm None 3156 0 3366
COULON Annick 10073 D60 0615AZ pm None 3722 0 3455